createdAt,value
2023-03-29T00:02:05.418Z,8.40
2023-03-29T00:04:34.158Z,8.65
2023-03-29T00:07:04.307Z,9.27
2023-03-29T00:09:33.107Z,6.90
2023-03-29T00:12:01.690Z,8.13
2023-03-29T00:14:30.780Z,9.05
2023-03-29T00:16:58.907Z,5.50
2023-03-29T00:19:26.004Z,4.47
2023-03-29T00:21:52.611Z,7.13
2023-03-29T00:24:21.634Z,6.43
2023-03-29T00:26:48.448Z,5.63
2023-03-29T00:29:16.273Z,6.50
2023-03-29T00:31:52.375Z,6.10
2023-03-29T00:34:20.651Z,6.70
2023-03-29T00:36:51.033Z,6.93
2023-03-29T00:39:18.566Z,8.93
2023-03-29T00:41:46.371Z,8.20
2023-03-29T00:44:50.695Z,8.63
2023-03-29T00:47:21.474Z,6.30
2023-03-29T00:49:49.687Z,5.70
2023-03-29T00:52:18.300Z,6.77
2023-03-29T00:54:46.278Z,7.93
2023-03-29T00:57:14.733Z,8.30
2023-03-29T00:59:43.295Z,5.17
2023-03-29T01:02:11.246Z,7.20
2023-03-29T01:04:46.220Z,5.57
2023-03-29T01:07:22.030Z,5.17
2023-03-29T01:09:57.966Z,7.07
2023-03-29T01:12:31.160Z,5.33
2023-03-29T01:15:10.626Z,10.77
2023-03-29T01:17:38.673Z,7.80
2023-03-29T01:20:14.214Z,6.57
2023-03-29T01:22:55.931Z,7.77
2023-03-29T01:25:57.126Z,7.90
2023-03-29T01:28:34.577Z,9.80
2023-03-29T01:31:09.396Z,7.37
2023-03-29T01:33:43.997Z,6.93
2023-03-29T01:36:31.234Z,8.13
2023-03-29T01:39:04.058Z,7.60
2023-03-29T01:41:59.457Z,5.17
2023-03-29T01:44:39.365Z,7.53
2023-03-29T01:47:13.424Z,9.63
2023-03-29T01:50:12.244Z,8.67
2023-03-29T01:52:46.189Z,7.03
2023-03-29T01:55:20.511Z,5.63
2023-03-29T01:57:50.526Z,7.10
2023-03-29T02:00:21.455Z,5.93
2023-03-29T02:02:51.287Z,8.07
2023-03-29T02:05:19.684Z,6.93
2023-03-29T02:07:48.336Z,6.90
2023-03-29T02:10:17.447Z,8.77
2023-03-29T02:12:44.530Z,6.77
2023-03-29T02:15:14.530Z,8.10
2023-03-29T02:17:41.352Z,6.77
2023-03-29T02:20:22.330Z,8.17
2023-03-29T02:22:59.791Z,5.80
2023-03-29T02:25:26.978Z,7.23
2023-03-29T02:27:54.227Z,9.00
2023-03-29T02:30:22.502Z,6.47
2023-03-29T02:33:04.630Z,5.83
2023-03-29T02:35:36.350Z,7.63
2023-03-29T02:38:07.109Z,8.43
2023-03-29T02:40:35.596Z,9.30
2023-03-29T02:43:04.355Z,10.90
2023-03-29T02:45:32.018Z,9.03
2023-03-29T02:48:03.389Z,8.13
2023-03-29T02:50:36.826Z,8.83
2023-03-29T02:53:09.529Z,7.67
2023-03-29T02:55:36.674Z,7.03
2023-03-29T02:58:08.273Z,8.17
2023-03-29T03:00:44.625Z,6.37
2023-03-29T03:03:12.308Z,6.93
2023-03-29T03:05:39.358Z,7.53
2023-03-29T03:08:07.310Z,7.63
2023-03-29T03:10:36.177Z,6.90
2023-03-29T03:13:04.095Z,7.13
2023-03-29T03:15:32.972Z,7.57
2023-03-29T03:18:00.862Z,9.27
2023-03-29T03:20:27.568Z,9.53
2023-03-29T03:22:54.792Z,6.10
2023-03-29T03:25:21.605Z,8.30
2023-03-29T03:27:49.780Z,7.70
2023-03-29T03:30:17.009Z,7.23
2023-03-29T03:32:44.750Z,9.57
2023-03-29T03:35:11.958Z,9.17
2023-03-29T03:37:40.288Z,7.97
2023-03-29T03:40:09.086Z,9.27
2023-03-29T03:42:36.170Z,11.67
2023-03-29T03:45:03.139Z,6.90
2023-03-29T03:47:31.162Z,11.77
2023-03-29T03:49:58.460Z,9.07
2023-03-29T03:52:25.263Z,8.53
2023-03-29T03:54:52.826Z,12.43
2023-03-29T03:57:19.405Z,10.13
2023-03-29T03:59:46.013Z,12.67
2023-03-29T04:02:13.173Z,10.10
2023-03-29T04:04:40.668Z,12.30
2023-03-29T04:07:07.332Z,11.70
2023-03-29T04:09:35.270Z,12.03
2023-03-29T04:12:01.865Z,11.47
2023-03-29T04:14:28.523Z,11.80
2023-03-29T04:16:55.433Z,12.57
2023-03-29T04:19:22.998Z,13.17
2023-03-29T04:21:51.195Z,13.50
2023-03-29T04:24:17.840Z,12.90
2023-03-29T04:26:45.223Z,13.87
2023-03-29T04:29:11.995Z,14.07
2023-03-29T04:31:40.747Z,16.50
2023-03-29T04:34:07.479Z,14.97
2023-03-29T04:36:34.176Z,14.80
2023-03-29T04:39:01.757Z,15.07
2023-03-29T04:41:29.074Z,14.60
2023-03-29T04:43:56.161Z,15.50
2023-03-29T04:46:26.476Z,16.60
2023-03-29T04:48:54.026Z,14.07
2023-03-29T04:51:22.521Z,14.03
2023-03-29T04:53:50.295Z,13.83
2023-03-29T04:56:17.288Z,13.50
2023-03-29T04:58:44.727Z,16.17
2023-03-29T05:01:11.538Z,14.97
2023-03-29T05:03:38.753Z,13.97
2023-03-29T05:06:07.343Z,14.50
2023-03-29T05:08:38.854Z,15.43
2023-03-29T05:11:08.409Z,14.10
2023-03-29T05:13:36.142Z,13.80
2023-03-29T05:16:04.376Z,13.13
2023-03-29T05:18:31.828Z,12.33
2023-03-29T05:20:59.572Z,14.30
2023-03-29T05:23:27.245Z,13.37
2023-03-29T05:25:54.785Z,12.70
2023-03-29T05:28:21.708Z,13.68
2023-03-29T05:31:00.202Z,13.40
2023-03-29T05:33:27.429Z,14.77
2023-03-29T05:36:02.418Z,14.07
2023-03-29T05:38:30.142Z,11.90
2023-03-29T05:40:58.629Z,10.60
2023-03-29T05:43:25.898Z,10.87
2023-03-29T05:45:54.155Z,12.43
2023-03-29T05:48:23.017Z,12.90
2023-03-29T05:50:51.087Z,10.80
2023-03-29T05:53:18.348Z,10.57
2023-03-29T05:55:46.607Z,12.53
2023-03-29T05:58:14.758Z,13.43
2023-03-29T06:00:41.896Z,10.37
2023-03-29T06:03:20.327Z,11.27
2023-03-29T06:05:55.208Z,10.60
2023-03-29T06:08:22.316Z,9.33
2023-03-29T06:10:50.258Z,9.87
2023-03-29T06:13:17.326Z,8.23
2023-03-29T06:15:45.204Z,10.63
2023-03-29T06:18:12.444Z,12.03
2023-03-29T06:20:39.158Z,8.20
2023-03-29T06:23:05.726Z,11.30
2023-03-29T06:25:32.424Z,10.82
2023-03-29T06:27:59.246Z,6.80
2023-03-29T06:30:25.844Z,10.20
2023-03-29T06:32:52.457Z,7.88
2023-03-29T06:35:19.200Z,7.75
2023-03-29T06:37:49.948Z,8.60
2023-03-29T06:40:19.079Z,7.95
2023-03-29T06:42:46.422Z,7.43
2023-03-29T06:45:13.657Z,7.13
2023-03-29T06:47:40.797Z,6.80
2023-03-29T06:50:09.288Z,7.20
2023-03-29T06:52:36.010Z,8.43
2023-03-29T06:55:02.973Z,5.57
2023-03-29T06:57:29.631Z,5.85
2023-03-29T06:59:56.326Z,6.38
2023-03-29T07:02:22.871Z,5.85
2023-03-29T07:04:49.666Z,6.43
2023-03-29T07:07:33.031Z,6.10
2023-03-29T07:10:01.761Z,5.57
2023-03-29T07:12:28.351Z,5.28
2023-03-29T07:14:54.926Z,5.88
2023-03-29T07:17:22.677Z,5.20
2023-03-29T07:19:49.612Z,6.55
2023-03-29T07:22:16.307Z,6.50
2023-03-29T07:24:43.637Z,6.82
2023-03-29T07:27:10.230Z,5.28
2023-03-29T07:29:37.159Z,6.53
2023-03-29T07:32:04.329Z,6.18
2023-03-29T07:34:32.664Z,7.68
2023-03-29T07:36:59.224Z,6.53
2023-03-29T07:39:26.513Z,5.35
2023-03-29T07:41:53.111Z,7.30
2023-03-29T07:44:21.471Z,7.00
2023-03-29T07:46:48.406Z,9.95
2023-03-29T07:49:15.387Z,9.57
2023-03-29T07:51:42.158Z,12.80
2023-03-29T07:54:08.958Z,13.75
2023-03-29T07:56:36.008Z,6.47
2023-03-29T07:59:03.395Z,6.68
2023-03-29T08:01:30.008Z,8.32
2023-03-29T08:03:56.845Z,8.48
2023-03-29T08:06:26.504Z,12.50
2023-03-29T08:08:53.100Z,9.70
2023-03-29T08:11:19.675Z,40.35
2023-03-29T08:13:46.296Z,8.57
2023-03-29T08:16:12.867Z,14.75
2023-03-29T08:18:39.513Z,9.32
2023-03-29T08:21:06.417Z,12.52
2023-03-29T08:23:33.003Z,9.98
2023-03-29T08:25:59.913Z,13.25
2023-03-29T08:28:26.470Z,13.52
2023-03-29T08:30:53.434Z,10.93
2023-03-29T08:33:20.216Z,9.38
2023-03-29T08:35:47.464Z,9.07
2023-03-29T08:38:14.276Z,10.27
2023-03-29T08:40:41.761Z,10.05
2023-03-29T08:43:17.649Z,8.48
2023-03-29T08:45:53.538Z,10.07
2023-03-29T08:48:28.500Z,11.00
2023-03-29T08:51:01.419Z,8.35
2023-03-29T08:53:34.493Z,10.70
2023-03-29T08:56:06.791Z,9.80
2023-03-29T08:58:37.968Z,8.85
2023-03-29T09:01:09.062Z,8.32
2023-03-29T09:03:42.909Z,8.00
2023-03-29T09:06:12.468Z,9.48
2023-03-29T09:08:52.603Z,9.90
2023-03-29T09:11:26.054Z,8.85
2023-03-29T09:14:19.227Z,12.45
2023-03-29T09:16:58.236Z,11.23
2023-03-29T09:19:52.816Z,9.07
2023-03-29T09:22:37.842Z,8.48
2023-03-29T09:25:29.215Z,10.30
2023-03-29T09:28:06.069Z,11.43
2023-03-29T09:30:42.942Z,9.48
2023-03-29T09:33:42.563Z,11.98
2023-03-29T09:36:19.849Z,12.32
2023-03-29T09:38:49.785Z,9.35
2023-03-29T09:41:39.579Z,9.45
2023-03-29T09:44:20.593Z,9.00
2023-03-29T09:47:01.211Z,11.30
2023-03-29T09:49:34.317Z,11.02
2023-03-29T09:52:07.528Z,12.32
2023-03-29T09:54:34.201Z,13.43
2023-03-29T09:57:00.982Z,12.90
2023-03-29T09:59:27.570Z,14.45
2023-03-29T10:02:09.158Z,16.63
2023-03-29T10:04:36.893Z,20.13
2023-03-29T10:07:04.720Z,15.80
2023-03-29T10:09:32.900Z,15.35
2023-03-29T10:12:05.077Z,18.15
2023-03-29T10:14:43.039Z,19.33
2023-03-29T10:17:25.298Z,18.05
2023-03-29T10:19:57.718Z,21.48
2023-03-29T10:22:34.554Z,16.60
2023-03-29T10:25:01.103Z,19.08
2023-03-29T10:27:31.134Z,19.00
2023-03-29T10:30:01.044Z,15.00
2023-03-29T10:32:32.440Z,12.98
2023-03-29T10:35:24.144Z,16.30
2023-03-29T10:37:53.076Z,15.48
2023-03-29T10:40:27.369Z,11.88
2023-03-29T10:42:58.499Z,12.57
2023-03-29T10:45:34.677Z,13.10
2023-03-29T10:48:03.911Z,11.40
2023-03-29T10:50:39.553Z,12.50
2023-03-29T10:53:23.278Z,10.52
2023-03-29T10:55:58.500Z,10.98
2023-03-29T10:58:51.108Z,12.35
2023-03-29T11:01:42.610Z,10.05
2023-03-29T11:04:39.043Z,10.57
2023-03-29T11:07:36.630Z,11.15
2023-03-29T11:10:30.612Z,12.85
2023-03-29T11:13:08.339Z,10.93
2023-03-29T11:16:03.591Z,10.82
2023-03-29T11:18:51.893Z,10.63
2023-03-29T11:21:37.211Z,12.25
2023-03-29T11:24:28.921Z,15.90
2023-03-29T11:27:12.162Z,10.45
2023-03-29T11:29:58.552Z,10.45
2023-03-29T11:32:32.003Z,9.85
2023-03-29T11:35:04.950Z,11.48
2023-03-29T11:37:53.831Z,15.07
2023-03-29T11:40:50.800Z,12.70
2023-03-29T11:43:28.035Z,15.85
2023-03-29T11:46:23.572Z,12.25
2023-03-29T11:49:05.003Z,13.23
2023-03-29T11:51:42.625Z,20.40
2023-03-29T11:54:25.019Z,18.77
2023-03-29T11:57:19.712Z,20.85
2023-03-29T12:00:12.511Z,22.63
2023-03-29T12:02:47.893Z,19.77
2023-03-29T12:05:25.928Z,17.65
2023-03-29T12:08:36.920Z,18.73
2023-03-29T12:11:23.785Z,18.38
2023-03-29T12:14:05.815Z,19.35
2023-03-29T12:16:42.540Z,20.50
2023-03-29T12:19:19.631Z,23.27
2023-03-29T12:21:47.327Z,16.42
2023-03-29T12:24:17.391Z,12.25
2023-03-29T12:26:50.300Z,13.68
2023-03-29T12:29:22.979Z,23.35
2023-03-29T12:31:52.601Z,12.73
2023-03-29T12:34:50.590Z,13.88
2023-03-29T12:37:36.093Z,10.02
2023-03-29T12:40:27.848Z,10.20
2023-03-29T12:43:07.744Z,10.35
2023-03-29T12:45:49.227Z,11.40
2023-03-29T12:48:21.622Z,12.20
2023-03-29T12:51:00.886Z,13.98
2023-03-29T12:53:36.350Z,11.18
2023-03-29T12:56:04.502Z,12.82
2023-03-29T12:59:16.241Z,11.35
2023-03-29T13:02:05.344Z,10.52
2023-03-29T13:04:55.070Z,10.23
2023-03-29T13:07:27.236Z,12.50
2023-03-29T13:09:56.932Z,10.48
2023-03-29T13:12:39.712Z,12.65
2023-03-29T13:15:20.650Z,10.65
2023-03-29T13:18:02.889Z,10.65
2023-03-29T13:20:47.166Z,11.32
2023-03-29T13:23:40.375Z,11.85
2023-03-29T13:26:19.379Z,10.60
2023-03-29T13:29:05.289Z,13.02
2023-03-29T13:31:44.186Z,17.70
2023-03-29T13:34:31.974Z,12.30
2023-03-29T13:37:29.026Z,10.68
2023-03-29T13:39:56.355Z,11.02
2023-03-29T13:42:39.958Z,9.68
2023-03-29T13:45:22.802Z,10.73
2023-03-29T13:48:04.338Z,11.85
2023-03-29T13:50:51.392Z,12.23
2023-03-29T13:53:36.223Z,10.20
2023-03-29T13:56:04.551Z,11.23
2023-03-29T13:58:41.837Z,9.38
2023-03-29T14:01:19.292Z,11.00
2023-03-29T14:03:52.181Z,13.05
2023-03-29T14:06:37.991Z,12.20
2023-03-29T14:09:09.088Z,14.88
2023-03-29T14:11:36.900Z,13.05
2023-03-29T14:14:08.769Z,16.60
2023-03-29T14:16:39.585Z,17.52
2023-03-29T14:19:19.769Z,14.32
2023-03-29T14:21:51.542Z,10.38
2023-03-29T14:24:25.859Z,9.13
2023-03-29T14:26:54.107Z,11.20
2023-03-29T14:29:24.257Z,12.10
2023-03-29T14:31:53.303Z,9.15
2023-03-29T14:34:19.883Z,8.57
2023-03-29T14:36:53.898Z,8.70
2023-03-29T14:39:23.266Z,9.50
2023-03-29T14:41:57.946Z,10.88
2023-03-29T14:44:30.858Z,9.48
2023-03-29T14:46:59.781Z,9.35
2023-03-29T14:49:26.985Z,10.15
2023-03-29T14:51:55.067Z,10.73
2023-03-29T14:54:33.547Z,9.43
2023-03-29T14:57:06.449Z,11.25
2023-03-29T14:59:42.275Z,11.27
2023-03-29T15:02:26.858Z,10.07
2023-03-29T15:05:05.226Z,11.02
2023-03-29T15:07:34.233Z,10.68
2023-03-29T15:10:04.040Z,12.85
2023-03-29T15:12:32.555Z,11.05
2023-03-29T15:15:00.658Z,10.05
2023-03-29T15:17:43.122Z,10.10
2023-03-29T15:20:21.500Z,9.55
2023-03-29T15:23:02.151Z,9.95
2023-03-29T15:25:37.404Z,10.27
2023-03-29T15:28:04.886Z,9.98
2023-03-29T15:30:34.856Z,10.23
2023-03-29T15:33:16.428Z,9.77
2023-03-29T15:35:48.982Z,12.13
2023-03-29T15:38:15.800Z,11.40
2023-03-29T15:40:42.573Z,10.13
2023-03-29T15:43:09.191Z,10.93
2023-03-29T15:45:36.065Z,11.57
2023-03-29T15:48:04.694Z,9.95
2023-03-29T15:50:32.410Z,10.70
2023-03-29T15:53:08.594Z,10.15
2023-03-29T15:55:45.150Z,10.55
2023-03-29T15:58:18.971Z,11.30
2023-03-29T16:00:51.053Z,10.93
2023-03-29T16:03:18.092Z,12.80
2023-03-29T16:05:45.773Z,11.18
2023-03-29T16:08:13.377Z,10.65
2023-03-29T16:10:41.474Z,10.88
2023-03-29T16:13:10.003Z,10.93
2023-03-29T16:15:36.887Z,12.30
2023-03-29T16:18:03.708Z,11.35
2023-03-29T16:20:30.438Z,12.07
2023-03-29T16:22:57.138Z,11.80
2023-03-29T16:25:24.300Z,12.25
2023-03-29T16:27:52.781Z,10.82
2023-03-29T16:30:20.076Z,12.00
2023-03-29T16:32:46.813Z,11.43
2023-03-29T16:35:31.006Z,11.25
2023-03-29T16:37:57.975Z,11.48
2023-03-29T16:40:24.853Z,15.82
2023-03-29T16:42:51.830Z,15.20
2023-03-29T16:45:19.268Z,11.82
2023-03-29T16:47:46.456Z,11.55
2023-03-29T16:50:15.054Z,12.32
2023-03-29T16:52:42.414Z,11.20
2023-03-29T16:55:12.308Z,10.38
2023-03-29T16:57:42.606Z,15.25
2023-03-29T17:00:16.820Z,11.57
2023-03-29T17:02:43.941Z,9.20
2023-03-29T17:05:12.484Z,9.57
2023-03-29T17:07:39.474Z,11.90
2023-03-29T17:10:13.886Z,10.18
2023-03-29T17:12:40.592Z,10.90
2023-03-29T17:15:07.899Z,11.10
2023-03-29T17:17:35.391Z,11.73
2023-03-29T17:20:02.319Z,13.25
2023-03-29T17:22:28.977Z,13.32
2023-03-29T17:24:55.592Z,13.38
2023-03-29T17:27:22.446Z,13.60
2023-03-29T17:29:49.869Z,12.38
2023-03-29T17:32:16.913Z,12.40
2023-03-29T17:34:43.635Z,13.75
2023-03-29T17:37:10.230Z,13.10
2023-03-29T17:42:31.162Z,13.75
2023-03-29T17:44:57.970Z,13.75
2023-03-29T17:47:24.658Z,17.88
2023-03-29T17:49:51.712Z,14.93
2023-03-29T17:52:19.547Z,14.82
2023-03-29T17:54:46.117Z,15.55
2023-03-29T17:57:13.026Z,15.30
2023-03-29T17:59:39.652Z,17.77
2023-03-29T18:02:07.099Z,14.90
2023-03-29T18:04:34.019Z,14.38
2023-03-29T18:07:01.289Z,14.57
2023-03-29T18:09:30.625Z,15.23
2023-03-29T18:11:57.548Z,15.10
2023-03-29T18:14:24.262Z,15.27
2023-03-29T18:16:51.063Z,15.65
2023-03-29T18:19:18.183Z,16.30
2023-03-29T18:21:44.909Z,19.63
2023-03-29T18:24:11.826Z,17.73
2023-03-29T18:26:38.426Z,16.90
2023-03-29T18:29:05.764Z,15.90
2023-03-29T18:31:33.954Z,16.90
2023-03-29T18:34:01.343Z,16.25
2023-03-29T18:36:30.379Z,18.17
2023-03-29T18:39:04.603Z,17.23
2023-03-29T18:41:32.530Z,17.27
2023-03-29T18:44:00.872Z,18.98
2023-03-29T18:46:31.122Z,19.63
2023-03-29T18:48:59.369Z,18.73
2023-03-29T18:51:28.002Z,17.52
2023-03-29T18:53:55.490Z,18.42
2023-03-29T18:56:22.406Z,18.20
2023-03-29T18:58:49.356Z,19.15
2023-03-29T19:01:16.202Z,20.48
2023-03-29T19:03:43.203Z,19.58
2023-03-29T19:06:11.693Z,19.35
2023-03-29T19:08:41.487Z,20.33
2023-03-29T19:11:11.428Z,20.20
2023-03-29T19:13:38.353Z,21.42
2023-03-29T19:16:05.833Z,24.83
2023-03-29T19:18:33.049Z,24.85
2023-03-29T19:20:59.724Z,23.02
2023-03-29T19:23:28.178Z,23.13
2023-03-29T19:25:57.041Z,24.83
2023-03-29T19:28:25.362Z,26.08
2023-03-29T19:30:52.387Z,26.30
2023-03-29T19:33:20.044Z,28.75
2023-03-29T19:35:47.060Z,30.33
2023-03-29T19:38:13.799Z,31.48
2023-03-29T19:40:43.869Z,30.77
2023-03-29T19:43:10.475Z,30.13
2023-03-29T19:45:37.087Z,30.95
2023-03-29T19:48:04.453Z,33.45
2023-03-29T19:50:32.015Z,33.25
2023-03-29T19:52:58.767Z,34.25
2023-03-29T19:55:26.771Z,34.33
2023-03-29T19:57:53.629Z,34.83
2023-03-29T20:00:24.338Z,34.95
2023-03-29T20:02:52.303Z,37.13
2023-03-29T20:05:20.370Z,42.50
2023-03-29T20:07:47.248Z,37.08
2023-03-29T20:10:14.154Z,39.03
2023-03-29T20:12:41.069Z,39.85
2023-03-29T20:15:08.468Z,43.47
2023-03-29T20:17:35.582Z,40.83
2023-03-29T20:20:07.905Z,45.13
2023-03-29T20:22:34.592Z,44.00
2023-03-29T20:25:01.207Z,48.95
2023-03-29T20:27:29.437Z,42.67
2023-03-29T20:29:56.287Z,46.58
2023-03-29T20:32:23.127Z,48.17
2023-03-29T20:34:49.838Z,47.38
2023-03-29T20:37:16.772Z,46.60
2023-03-29T20:39:43.676Z,46.13
2023-03-29T20:42:11.154Z,49.08
2023-03-29T20:44:39.106Z,49.60
2023-03-29T20:47:08.331Z,51.03
2023-03-29T20:49:39.405Z,50.80
2023-03-29T20:52:18.720Z,49.70
2023-03-29T20:54:45.728Z,49.75
2023-03-29T20:57:15.702Z,53.47
2023-03-29T20:59:43.787Z,51.53
2023-03-29T21:02:17.234Z,52.92
2023-03-29T21:04:44.621Z,53.25
2023-03-29T21:07:11.336Z,49.25
2023-03-29T21:09:38.086Z,56.00
2023-03-29T21:12:04.807Z,51.90
2023-03-29T21:14:33.113Z,55.45
2023-03-29T21:16:59.899Z,50.47
2023-03-29T21:19:26.875Z,53.90
2023-03-29T21:21:54.950Z,53.60
2023-03-29T21:24:22.059Z,51.10
2023-03-29T21:26:48.831Z,57.10
2023-03-29T21:29:15.853Z,51.65
2023-03-29T21:31:42.978Z,52.40
2023-03-29T21:34:09.813Z,54.65
2023-03-29T21:36:36.486Z,56.95
2023-03-29T21:39:03.918Z,55.50
2023-03-29T21:41:30.873Z,53.63
2023-03-29T21:43:57.714Z,53.30
2023-03-29T21:46:25.696Z,55.08
2023-03-29T21:48:52.445Z,55.42
2023-03-29T21:51:19.102Z,53.05
2023-03-29T21:53:46.013Z,55.90
2023-03-29T21:56:12.942Z,55.28
2023-03-29T21:58:39.635Z,52.47
2023-03-29T22:01:09.752Z,52.72
2023-03-29T22:03:37.633Z,51.25
2023-03-29T22:06:08.619Z,55.13
2023-03-29T22:08:38.792Z,53.38
2023-03-29T22:11:11.440Z,55.03
2023-03-29T22:13:38.844Z,53.28
2023-03-29T22:16:06.822Z,54.17
2023-03-29T22:18:46.651Z,50.47
2023-03-29T22:21:19.013Z,50.38
2023-03-29T22:23:48.047Z,53.55
2023-03-29T22:26:16.910Z,55.42
2023-03-29T22:28:44.068Z,54.13
2023-03-29T22:31:14.044Z,53.95
2023-03-29T22:33:41.673Z,51.58
2023-03-29T22:36:19.084Z,54.08
2023-03-29T22:38:46.634Z,53.50
2023-03-29T22:41:15.786Z,52.97
2023-03-29T22:43:42.586Z,52.47
2023-03-29T22:46:11.688Z,52.67
2023-03-29T22:48:38.733Z,52.60
2023-03-29T22:51:06.035Z,52.92
2023-03-29T22:53:33.626Z,51.95
2023-03-29T22:56:00.827Z,50.15
2023-03-29T22:58:29.401Z,50.10
2023-03-29T23:00:57.479Z,54.03
2023-03-29T23:03:24.690Z,55.17
2023-03-29T23:05:52.772Z,56.72
2023-03-29T23:08:19.818Z,59.10
2023-03-29T23:10:47.079Z,55.40
2023-03-29T23:13:19.938Z,52.28
2023-03-29T23:15:50.428Z,55.72
2023-03-29T23:18:20.908Z,53.35
2023-03-29T23:20:49.104Z,55.72
2023-03-29T23:23:17.267Z,57.13
2023-03-29T23:25:45.729Z,57.45
2023-03-29T23:28:12.793Z,56.83
2023-03-29T23:30:39.479Z,58.85
2023-03-29T23:33:06.964Z,61.50
2023-03-29T23:35:33.691Z,60.05
2023-03-29T23:38:00.743Z,59.20
2023-03-29T23:40:27.964Z,53.55
2023-03-29T23:42:59.453Z,61.80
2023-03-29T23:45:28.120Z,57.15
2023-03-29T23:47:54.842Z,57.00
2023-03-29T23:50:22.587Z,61.33
2023-03-29T23:52:51.570Z,55.97
2023-03-29T23:55:18.804Z,57.53
2023-03-29T23:57:45.815Z,55.88
